Barretville, Tennessee
Current Conditions -  °F | °C
As of 3:15 AM on Thursday 27 Nov 2014 (Local Time) from KNQA Reporting Station
Broken Clouds Broken Clouds  
Wind Chill: 33°   Ceiling: 3500
Heat Index: 39°   Visibility: 10mi
Dew Point: 32°   Wind: 9mph
Humidity: 75%   Direction: 310°NW
Pressure: 30.31"   Gusts: NA
Location:  35.3343°N, 89.9316°W
Report Text: KNQA 270915Z AUTO 31008KT 10SM BKN035 04/00 A3031 RMK
Loading
Personal Weather Stations






























Interactive Weather Map New forecast layout! Learn more

10-Day Weather Forecast

Advertisements
Track Severe Weather on mobile